Time;durP1;ratioP1;P1;durP2;ratioP2;P2;SDS_P1;SDS_P2;PMS_P1;PMS_P2;Temp;Humidity;BMP_temperature;BMP_pressure;BME280_temperature;BME280_humidity;BME280_pressure;Samples;Min_cycle;Max_cycle;Signal;HPM_P1;HPM_P2
2022/04/14 00:00:09;;;;;;;5.15;4.18;;;;;;;;;;4953362;28;20235;-62
2022/04/14 00:02:37;;;;;;;7.32;4.28;;;;;;;;;;4942903;29;20206;-62
2022/04/14 00:05:05;;;;;;;4.05;3.75;;;;;;;;;;4937810;29;20214;-63
2022/04/14 00:07:32;;;;;;;5.50;3.60;;;;;;;;;;4950430;28;20215;-62
2022/04/14 00:09:59;;;;;;;4.65;4.32;;;;;;;;;;4944357;29;20911;-62
2022/04/14 00:12:26;;;;;;;5.07;4.10;;;;;;;;;;4941008;29;20207;-62
2022/04/14 00:14:53;;;;;;;4.40;4.07;;;;;;;;;;4934038;29;20207;-63
2022/04/14 00:17:20;;;;;;;5.00;4.50;;;;;;;;;;4943036;29;20662;-62
2022/04/14 00:19:48;;;;;;;6.68;5.07;;;;;;;;;;4944215;29;20238;-62
2022/04/14 00:22:15;;;;;;;5.28;4.82;;;;;;;;;;4940891;28;20701;-62
2022/04/14 00:24:42;;;;;;;6.78;5.35;;;;;;;;;;4936005;29;20204;-63
2022/04/14 00:27:09;;;;;;;8.32;5.13;;;;;;;;;;4940597;28;20208;-62
2022/04/14 00:29:36;;;;;;;5.28;4.85;;;;;;;;;;4946551;29;20715;-62
2022/04/14 00:32:03;;;;;;;8.88;4.55;;;;;;;;;;4947149;29;20213;-62
2022/04/14 00:34:30;;;;;;;6.00;5.40;;;;;;;;;;4951226;29;20666;-62
2022/04/14 00:36:59;;;;;;;5.72;4.90;;;;;;;;;;4939713;29;20274;-62
2022/04/14 00:39:26;;;;;;;6.07;5.03;;;;;;;;;;4948071;29;20222;-63
2022/04/14 00:41:53;;;;;;;8.77;5.28;;;;;;;;;;4947545;29;20943;-63
2022/04/14 00:44:20;;;;;;;4.93;4.53;;;;;;;;;;4936251;29;20273;-62
2022/04/14 00:46:47;;;;;;;4.70;4.32;;;;;;;;;;4945661;29;20644;-63
2022/04/14 00:49:14;;;;;;;5.00;4.60;;;;;;;;;;4942219;29;20615;-62
2022/04/14 00:51:41;;;;;;;6.15;4.60;;;;;;;;;;4939950;29;20686;-63
2022/04/14 00:54:10;;;;;;;5.97;5.00;;;;;;;;;;4937920;29;20215;-63
2022/04/14 00:56:37;;;;;;;5.95;5.07;;;;;;;;;;4935356;29;20215;-63
2022/04/14 00:59:04;;;;;;;7.82;5.22;;;;;;;;;;4945291;28;20234;-63
2022/04/14 01:01:31;;;;;;;5.70;4.63;;;;;;;;;;4943049;29;20726;-62
2022/04/14 01:03:59;;;;;;;7.40;4.82;;;;;;;;;;4946590;29;20214;-62
2022/04/14 01:06:26;;;;;;;5.10;4.57;;;;;;;;;;4949254;29;20234;-62
2022/04/14 01:11:42;;;;;;;5.78;4.93;;;;;;;;;;4939257;29;20214;-62
2022/04/14 01:14:09;;;;;;;5.25;4.75;;;;;;;;;;4948436;29;20211;-62
2022/04/14 01:16:36;;;;;;;4.07;3.78;;;;;;;;;;4946793;29;20207;-63
2022/04/14 01:19:03;;;;;;;9.32;4.90;;;;;;;;;;4946161;29;20262;-62
2022/04/14 01:21:33;;;;;;;7.32;4.45;;;;;;;;;;4941661;29;20294;-62
2022/04/14 01:24:02;;;;;;;5.90;5.28;;;;;;;;;;4943220;29;20219;-62
2022/04/14 01:26:29;;;;;;;6.53;4.78;;;;;;;;;;4944956;29;20309;-62
2022/04/14 01:28:56;;;;;;;6.72;4.22;;;;;;;;;;4940037;29;20220;-62
2022/04/14 01:31:23;;;;;;;6.03;5.15;;;;;;;;;;4937304;29;20409;-62
2022/04/14 01:33:50;;;;;;;4.38;4.07;;;;;;;;;;4936579;29;20226;-62
2022/04/14 01:36:19;;;;;;;7.50;4.13;;;;;;;;;;4936989;29;20620;-62
2022/04/14 01:38:46;;;;;;;4.70;4.38;;;;;;;;;;4939023;29;20759;-62
2022/04/14 01:41:15;;;;;;;8.32;5.13;;;;;;;;;;4944576;29;20204;-62
2022/04/14 01:43:43;;;;;;;4.82;4.35;;;;;;;;;;4940711;29;20258;-62
2022/04/14 01:46:10;;;;;;;4.97;4.57;;;;;;;;;;4936704;29;20298;-62
2022/04/14 01:48:38;;;;;;;4.93;4.43;;;;;;;;;;4943697;29;20299;-62
2022/04/14 01:51:05;;;;;;;5.15;4.65;;;;;;;;;;4938305;29;20355;-62
2022/04/14 01:53:32;;;;;;;7.72;4.82;;;;;;;;;;4950375;29;20211;-62
2022/04/14 01:55:59;;;;;;;6.40;4.63;;;;;;;;;;4951602;28;20230;-62
2022/04/14 01:58:27;;;;;;;4.78;4.38;;;;;;;;;;4939956;28;20639;-62
2022/04/14 02:00:55;;;;;;;5.15;4.43;;;;;;;;;;4939323;29;20267;-63
2022/04/14 02:03:22;;;;;;;6.22;4.65;;;;;;;;;;4945819;29;20680;-62
2022/04/14 02:05:49;;;;;;;4.97;4.47;;;;;;;;;;4948063;29;20281;-62
2022/04/14 02:08:16;;;;;;;5.25;4.20;;;;;;;;;;4950604;29;20211;-62
2022/04/14 02:10:43;;;;;;;6.38;4.13;;;;;;;;;;4943623;29;20203;-62
2022/04/14 02:13:10;;;;;;;4.60;4.20;;;;;;;;;;4936545;29;20282;-62
2022/04/14 02:15:38;;;;;;;6.07;4.18;;;;;;;;;;4941528;29;20210;-61
2022/04/14 02:18:05;;;;;;;6.15;4.45;;;;;;;;;;4942199;28;20235;-63
2022/04/14 02:20:32;;;;;;;6.57;4.57;;;;;;;;;;4936956;29;20762;-62
2022/04/14 02:22:59;;;;;;;5.05;4.43;;;;;;;;;;4946297;29;20215;-62
2022/04/14 02:25:27;;;;;;;5.20;4.70;;;;;;;;;;4940873;29;20603;-62
2022/04/14 02:27:54;;;;;;;6.90;4.60;;;;;;;;;;4941451;29;20219;-62
2022/04/14 02:30:21;;;;;;;11.63;4.50;;;;;;;;;;4940631;28;20227;-62
2022/04/14 02:32:49;;;;;;;5.40;4.85;;;;;;;;;;4934740;29;20207;-62
2022/04/14 02:35:16;;;;;;;5.03;4.28;;;;;;;;;;4946963;29;20669;-62
2022/04/14 02:37:43;;;;;;;5.90;4.32;;;;;;;;;;4942658;28;20197;-62
2022/04/14 02:40:10;;;;;;;5.13;4.53;;;;;;;;;;4936446;29;20727;-62
2022/04/14 02:42:37;;;;;;;4.45;4.07;;;;;;;;;;4946279;29;20579;-62
2022/04/14 02:45:05;;;;;;;7.50;4.50;;;;;;;;;;4940843;29;20214;-62
2022/04/14 02:47:32;;;;;;;4.70;4.28;;;;;;;;;;4942675;29;20206;-62
2022/04/14 02:50:00;;;;;;;5.60;4.60;;;;;;;;;;4935166;29;20219;-62
2022/04/14 02:52:27;;;;;;;4.13;3.85;;;;;;;;;;4935003;29;20230;-62
2022/04/14 02:54:54;;;;;;;4.28;3.88;;;;;;;;;;4940619;29;20219;-62
2022/04/14 02:57:21;;;;;;;4.90;4.20;;;;;;;;;;4945757;28;20265;-62
2022/04/14 02:59:48;;;;;;;7.45;4.78;;;;;;;;;;4945918;29;20682;-62
2022/04/14 03:02:16;;;;;;;4.75;3.83;;;;;;;;;;4938220;29;20215;-62
2022/04/14 03:04:43;;;;;;;6.50;4.40;;;;;;;;;;4942287;29;20211;-62
2022/04/14 03:07:11;;;;;;;7.38;3.90;;;;;;;;;;4935316;29;20696;-62
2022/04/14 03:09:38;;;;;;;4.63;4.15;;;;;;;;;;4942563;29;20211;-62
2022/04/14 03:12:05;;;;;;;5.38;4.00;;;;;;;;;;4937758;29;20215;-62
2022/04/14 03:14:32;;;;;;;4.65;3.65;;;;;;;;;;4942590;28;20211;-62
2022/04/14 03:16:59;;;;;;;4.82;4.07;;;;;;;;;;4948021;29;20221;-62
2022/04/14 03:19:26;;;;;;;4.03;3.72;;;;;;;;;;4945211;29;20712;-62
2022/04/14 03:21:53;;;;;;;4.85;4.20;;;;;;;;;;4943212;29;20217;-63
2022/04/14 03:24:22;;;;;;;8.88;4.53;;;;;;;;;;4941304;29;20263;-62
2022/04/14 03:26:49;;;;;;;9.07;4.00;;;;;;;;;;4938868;29;20227;-62
2022/04/14 03:29:16;;;;;;;4.93;4.30;;;;;;;;;;4938944;29;20249;-62
2022/04/14 03:31:43;;;;;;;6.88;4.30;;;;;;;;;;4946232;29;20203;-61
2022/04/14 03:34:10;;;;;;;5.78;4.20;;;;;;;;;;4936987;29;20207;-62
2022/04/14 03:36:37;;;;;;;5.43;4.15;;;;;;;;;;4934250;29;20759;-62
2022/04/14 03:39:04;;;;;;;4.95;4.10;;;;;;;;;;4942241;29;20211;-61
2022/04/14 03:41:33;;;;;;;5.20;3.13;;;;;;;;;;4937267;29;20304;-62
2022/04/14 03:44:00;;;;;;;4.25;3.40;;;;;;;;;;4941490;29;20675;-62
2022/04/14 03:46:27;;;;;;;3.45;3.25;;;;;;;;;;4936756;29;20214;-63
2022/04/14 03:48:58;;;;;;;5.38;3.60;;;;;;;;;;4938069;28;20199;-62
2022/04/14 03:51:25;;;;;;;4.50;3.92;;;;;;;;;;4944084;28;20203;-62
2022/04/14 03:53:52;;;;;;;4.20;3.38;;;;;;;;;;4952323;28;20218;-62
2022/04/14 03:56:19;;;;;;;4.18;3.80;;;;;;;;;;4948064;29;20218;-62
2022/04/14 03:58:48;;;;;;;4.63;4.20;;;;;;;;;;4947335;29;20219;-62
2022/04/14 04:01:15;;;;;;;4.82;4.30;;;;;;;;;;4934666;29;20238;-62
2022/04/14 04:03:42;;;;;;;5.07;4.63;;;;;;;;;;4945345;29;20199;-62
2022/04/14 04:06:09;;;;;;;5.73;3.63;;;;;;;;;;4943896;29;20234;-62
2022/04/14 04:08:36;;;;;;;4.47;4.07;;;;;;;;;;4933659;29;20211;-62
2022/04/14 04:11:03;;;;;;;6.38;3.40;;;;;;;;;;4937079;29;20608;-62
2022/04/14 04:13:30;;;;;;;4.53;3.90;;;;;;;;;;4942596;29;20298;-62
2022/04/14 04:15:58;;;;;;;4.05;3.67;;;;;;;;;;4942149;29;20764;-62
2022/04/14 04:18:25;;;;;;;4.97;4.35;;;;;;;;;;4940546;28;20223;-62
2022/04/14 04:20:52;;;;;;;4.70;4.05;;;;;;;;;;4933404;29;20239;-63
2022/04/14 04:23:19;;;;;;;5.43;4.43;;;;;;;;;;4936577;29;20208;-61
2022/04/14 04:25:46;;;;;;;8.00;4.80;;;;;;;;;;4935494;29;20775;-61
2022/04/14 04:28:13;;;;;;;7.65;4.80;;;;;;;;;;4942014;29;20207;-61
2022/04/14 04:30:40;;;;;;;8.68;5.15;;;;;;;;;;4944901;29;20242;-61
2022/04/14 04:33:09;;;;;;;6.95;4.25;;;;;;;;;;4942094;29;20661;-61
2022/04/14 04:35:36;;;;;;;4.97;4.47;;;;;;;;;;4941864;28;20203;-61
2022/04/14 04:38:03;;;;;;;5.60;4.00;;;;;;;;;;4931485;29;20640;-61
2022/04/14 04:40:30;;;;;;;4.20;3.90;;;;;;;;;;4940376;29;20227;-61
2022/04/14 04:42:57;;;;;;;5.43;4.93;;;;;;;;;;4936730;29;20222;-62
2022/04/14 04:45:24;;;;;;;5.82;4.75;;;;;;;;;;4944551;29;20219;-61
2022/04/14 04:47:51;;;;;;;6.13;4.97;;;;;;;;;;4941476;28;20748;-62
2022/04/14 04:50:20;;;;;;;6.65;5.35;;;;;;;;;;4938442;28;20204;-61
2022/04/14 04:52:47;;;;;;;6.93;5.57;;;;;;;;;;4933294;29;20776;-63
2022/04/14 04:55:14;;;;;;;5.87;5.27;;;;;;;;;;4939373;29;20214;-62
2022/04/14 04:57:41;;;;;;;7.22;5.40;;;;;;;;;;4939985;28;20368;-62
2022/04/14 05:00:08;;;;;;;9.53;5.13;;;;;;;;;;4936597;29;20238;-62
2022/04/14 05:02:35;;;;;;;4.75;4.35;;;;;;;;;;4932570;29;20252;-61
2022/04/14 05:05:03;;;;;;;9.20;5.60;;;;;;;;;;4938001;29;20686;-62
2022/04/14 05:07:31;;;;;;;8.03;5.53;;;;;;;;;;4940536;29;20212;-62
2022/04/14 05:09:58;;;;;;;8.13;5.27;;;;;;;;;;4942598;29;20262;-62
2022/04/14 05:12:25;;;;;;;6.13;4.93;;;;;;;;;;4936339;29;20212;-62
2022/04/14 05:14:52;;;;;;;6.00;5.47;;;;;;;;;;4949077;28;20290;-62
2022/04/14 05:17:19;;;;;;;7.63;5.70;;;;;;;;;;4946387;29;20230;-62
2022/04/14 05:19:46;;;;;;;9.27;5.97;;;;;;;;;;4946952;28;20220;-62
2022/04/14 05:22:13;;;;;;;9.10;6.22;;;;;;;;;;4937469;29;20258;-61
2022/04/14 05:24:42;;;;;;;10.60;5.93;;;;;;;;;;4944138;29;20208;-61
2022/04/14 05:27:09;;;;;;;9.87;5.87;;;;;;;;;;4944493;29;20278;-62
2022/04/14 05:29:37;;;;;;;8.70;6.43;;;;;;;;;;4944449;29;20258;-62
2022/04/14 05:32:04;;;;;;;7.05;6.22;;;;;;;;;;4936465;29;20224;-62
2022/04/14 05:34:32;;;;;;;9.10;6.60;;;;;;;;;;4937458;29;20671;-62
2022/04/14 05:36:59;;;;;;;7.93;5.85;;;;;;;;;;4949582;29;20215;-62
2022/04/14 05:39:26;;;;;;;9.35;5.90;;;;;;;;;;4946571;29;20432;-62
2022/04/14 05:41:55;;;;;;;3.97;3.67;;;;;;;;;;4934912;29;20306;-62
2022/04/14 05:44:22;;;;;;;4.97;4.30;;;;;;;;;;4943472;29;20208;-62
2022/04/14 05:46:49;;;;;;;6.20;4.60;;;;;;;;;;4941394;29;20224;-62
2022/04/14 05:49:18;;;;;;;4.20;3.90;;;;;;;;;;4941523;29;20573;-62
2022/04/14 05:51:45;;;;;;;5.27;3.40;;;;;;;;;;4935884;29;20207;-62
2022/04/14 05:54:12;;;;;;;4.80;4.00;;;;;;;;;;4940754;29;20281;-62
2022/04/14 05:56:39;;;;;;;5.95;4.43;;;;;;;;;;4938226;29;20220;-62
2022/04/14 05:59:15;;;;;;;7.63;5.45;;;;;;;;;;4942298;29;20218;-62
2022/04/14 06:01:42;;;;;;;5.22;4.68;;;;;;;;;;4946212;29;20223;-60
2022/04/14 06:04:09;;;;;;;8.25;6.15;;;;;;;;;;4938683;29;20223;-61
2022/04/14 06:06:36;;;;;;;11.13;5.35;;;;;;;;;;4934952;29;20216;-64
2022/04/14 06:09:04;;;;;;;8.10;5.53;;;;;;;;;;4942779;28;20263;-62
2022/04/14 06:11:31;;;;;;;7.88;5.97;;;;;;;;;;4936733;28;20195;-62
2022/04/14 06:13:58;;;;;;;10.95;6.38;;;;;;;;;;4947337;29;20211;-62
2022/04/14 06:16:26;;;;;;;8.77;5.82;;;;;;;;;;4938276;29;20212;-62
2022/04/14 06:18:53;;;;;;;6.65;5.55;;;;;;;;;;4943804;29;20211;-62
2022/04/14 06:21:20;;;;;;;10.38;6.53;;;;;;;;;;4943312;29;20645;-62
2022/04/14 06:23:47;;;;;;;11.40;5.95;;;;;;;;;;4939566;29;20590;-63
2022/04/14 06:26:14;;;;;;;11.57;6.00;;;;;;;;;;4937463;29;20747;-63
2022/04/14 06:28:42;;;;;;;10.77;5.68;;;;;;;;;;4933759;29;20215;-63
2022/04/14 06:31:09;;;;;;;9.00;6.20;;;;;;;;;;4940784;28;20254;-62
2022/04/14 06:33:37;;;;;;;10.05;6.00;;;;;;;;;;4933412;29;20229;-61
2022/04/14 06:36:04;;;;;;;8.00;5.22;;;;;;;;;;4937121;28;20210;-61
2022/04/14 06:38:31;;;;;;;10.27;5.78;;;;;;;;;;4939628;29;20215;-61
2022/04/14 06:40:58;;;;;;;8.48;5.22;;;;;;;;;;4947325;29;20237;-61
2022/04/14 06:43:26;;;;;;;7.75;5.57;;;;;;;;;;4937927;29;20667;-61
2022/04/14 06:45:53;;;;;;;11.50;5.95;;;;;;;;;;4935965;29;20223;-62
2022/04/14 06:48:20;;;;;;;4.90;4.40;;;;;;;;;;4939627;29;20216;-62
2022/04/14 06:50:48;;;;;;;6.47;5.00;;;;;;;;;;4946899;29;20199;-63
2022/04/14 06:53:17;;;;;;;7.05;5.68;;;;;;;;;;4935866;28;20267;-63
2022/04/14 06:55:47;;;;;;;8.32;5.55;;;;;;;;;;4952001;28;20204;-63
2022/04/14 06:58:15;;;;;;;8.65;4.93;;;;;;;;;;4940472;29;21922;-65
2022/04/14 07:00:42;;;;;;;9.73;5.88;;;;;;;;;;4944841;28;20219;-62
2022/04/14 07:03:09;;;;;;;5.38;4.55;;;;;;;;;;4947208;29;20588;-65
2022/04/14 07:05:36;;;;;;;14.13;6.57;;;;;;;;;;4939670;29;20271;-58
2022/04/14 07:08:05;;;;;;;10.27;5.70;;;;;;;;;;4944730;28;20208;-62
2022/04/14 07:10:32;;;;;;;7.38;5.82;;;;;;;;;;4942377;29;20218;-62
2022/04/14 07:12:59;;;;;;;7.72;5.93;;;;;;;;;;4948710;29;20667;-65
2022/04/14 07:15:26;;;;;;;5.43;4.93;;;;;;;;;;4952185;29;20215;-62
2022/04/14 07:17:53;;;;;;;9.88;5.97;;;;;;;;;;4938308;29;20628;-61
2022/04/14 07:20:20;;;;;;;10.00;6.55;;;;;;;;;;4937034;29;20215;-61
2022/04/14 07:22:48;;;;;;;8.25;5.70;;;;;;;;;;4951656;29;20318;-62
2022/04/14 07:25:17;;;;;;;10.10;6.07;;;;;;;;;;4951932;29;20234;-61
2022/04/14 07:27:45;;;;;;;9.85;6.22;;;;;;;;;;4943628;29;20210;-61
2022/04/14 07:30:12;;;;;;;7.68;5.88;;;;;;;;;;4951860;29;20302;-62
2022/04/14 07:32:40;;;;;;;7.80;6.50;;;;;;;;;;4939791;29;20203;-62
2022/04/14 07:35:08;;;;;;;8.80;6.50;;;;;;;;;;4933543;29;20220;-62
2022/04/14 07:37:36;;;;;;;9.05;6.68;;;;;;;;;;4942707;29;20211;-61
2022/04/14 07:40:03;;;;;;;11.65;6.05;;;;;;;;;;4951653;29;20211;-62
2022/04/14 07:42:35;;;;;;;13.68;7.18;;;;;;;;;;4937456;29;20767;-63
2022/04/14 07:45:02;;;;;;;9.13;6.10;;;;;;;;;;4944425;29;20293;-61
2022/04/14 07:47:29;;;;;;;9.32;6.20;;;;;;;;;;4942192;29;20203;-62
2022/04/14 07:49:56;;;;;;;9.43;6.30;;;;;;;;;;4944829;29;20212;-59
2022/04/14 07:52:23;;;;;;;12.85;7.10;;;;;;;;;;4957235;28;20198;-59
2022/04/14 07:54:50;;;;;;;10.02;6.65;;;;;;;;;;4951826;29;20265;-61
2022/04/14 07:57:17;;;;;;;9.68;6.82;;;;;;;;;;4944768;29;20214;-60
2022/04/14 07:59:46;;;;;;;9.18;6.80;;;;;;;;;;4939818;29;20208;-59
2022/04/14 08:02:13;;;;;;;8.90;6.75;;;;;;;;;;4941977;29;20235;-60
2022/04/14 08:04:41;;;;;;;10.35;7.13;;;;;;;;;;4929830;29;20215;-59
2022/04/14 08:07:08;;;;;;;11.43;6.45;;;;;;;;;;4944283;29;20733;-59
2022/04/14 08:09:35;;;;;;;10.85;7.38;;;;;;;;;;4932399;29;20226;-59
2022/04/14 08:12:02;;;;;;;9.77;6.80;;;;;;;;;;4949987;29;20211;-61
2022/04/14 08:14:29;;;;;;;9.90;6.93;;;;;;;;;;4949726;29;20708;-58
2022/04/14 08:17:03;;;;;;;8.70;6.90;;;;;;;;;;4930896;29;20227;-59
2022/04/14 08:19:30;;;;;;;10.02;7.25;;;;;;;;;;4930676;29;20243;-59
2022/04/14 08:21:58;;;;;;;10.85;7.65;;;;;;;;;;4931114;29;20232;-59
2022/04/14 08:24:25;;;;;;;13.00;7.47;;;;;;;;;;4930937;29;20224;-60
2022/04/14 08:26:53;;;;;;;12.85;7.55;;;;;;;;;;4930614;29;20263;-59
2022/04/14 08:29:20;;;;;;;12.25;7.90;;;;;;;;;;4931590;29;20248;-60
2022/04/14 08:31:47;;;;;;;11.60;7.43;;;;;;;;;;4930771;29;20211;-60
2022/04/14 08:34:15;;;;;;;11.27;7.20;;;;;;;;;;4930815;29;20721;-60
2022/04/14 08:36:42;;;;;;;8.63;6.60;;;;;;;;;;4930974;29;20220;-60
2022/04/14 08:39:09;;;;;;;9.25;6.95;;;;;;;;;;4943452;29;20214;-59
2022/04/14 08:41:38;;;;;;;11.98;6.57;;;;;;;;;;4949865;29;20234;-59
2022/04/14 08:44:09;;;;;;;8.35;6.85;;;;;;;;;;4948154;29;20218;-59
2022/04/14 08:46:38;;;;;;;9.35;5.85;;;;;;;;;;4947624;28;20231;-60
2022/04/14 08:49:05;;;;;;;6.35;5.15;;;;;;;;;;4939057;28;20207;-60
2022/04/14 08:51:36;;;;;;;5.30;4.80;;;;;;;;;;4949473;29;20210;-60
2022/04/14 08:54:03;;;;;;;7.25;5.88;;;;;;;;;;4943118;29;20287;-60
2022/04/14 08:56:32;;;;;;;6.63;5.35;;;;;;;;;;4934417;29;20284;-60
2022/04/14 08:58:59;;;;;;;7.07;5.45;;;;;;;;;;4933992;29;20243;-60
2022/04/14 09:01:26;;;;;;;6.00;4.85;;;;;;;;;;4933499;29;20235;-61
2022/04/14 09:03:55;;;;;;;7.75;4.90;;;;;;;;;;4933183;29;20299;-60
2022/04/14 09:06:23;;;;;;;5.72;4.80;;;;;;;;;;4933222;29;20262;-61
2022/04/14 09:08:51;;;;;;;6.25;5.00;;;;;;;;;;4941649;29;20207;-61
2022/04/14 09:11:18;;;;;;;6.68;5.40;;;;;;;;;;4952428;29;20615;-58
2022/04/14 09:13:46;;;;;;;6.22;4.60;;;;;;;;;;4952519;29;20215;-61
2022/04/14 09:16:13;;;;;;;8.30;4.53;;;;;;;;;;4952575;29;20203;-60
2022/04/14 09:18:40;;;;;;;4.75;4.15;;;;;;;;;;4953316;29;20309;-60
2022/04/14 09:21:08;;;;;;;3.25;2.95;;;;;;;;;;4951347;29;20269;-60
2022/04/14 09:23:36;;;;;;;5.95;3.53;;;;;;;;;;4953178;29;20218;-60
2022/04/14 09:26:13;;;;;;;4.25;3.85;;;;;;;;;;4952750;29;20238;-61
2022/04/14 09:28:40;;;;;;;2.38;2.25;;;;;;;;;;4953183;29;20214;-60
2022/04/14 09:31:09;;;;;;;4.40;3.60;;;;;;;;;;4952374;29;20243;-60
2022/04/14 09:33:37;;;;;;;4.05;3.35;;;;;;;;;;4953446;29;20253;-61
2022/04/14 09:36:12;;;;;;;2.55;2.45;;;;;;;;;;4953348;29;20561;-60
2022/04/14 09:38:56;;;;;;;4.78;3.28;;;;;;;;;;4953191;29;20210;-60
2022/04/14 09:41:31;;;;;;;3.50;2.95;;;;;;;;;;4951466;29;20537;-60
2022/04/14 09:43:59;;;;;;;4.78;2.38;;;;;;;;;;4951167;29;20221;-60
2022/04/14 09:46:26;;;;;;;1.75;1.65;;;;;;;;;;4953095;29;20215;-60
2022/04/14 09:49:00;;;;;;;2.50;2.30;;;;;;;;;;4935352;29;20924;-60
2022/04/14 09:51:27;;;;;;;1.35;0.88;;;;;;;;;;4934001;29;20246;-60
2022/04/14 09:54:03;;;;;;;1.50;1.45;;;;;;;;;;4934035;29;20216;-60
2022/04/14 09:56:40;;;;;;;2.13;1.55;;;;;;;;;;4934277;29;20311;-60
2022/04/14 09:59:08;;;;;;;1.95;1.67;;;;;;;;;;4933156;29;20310;-60
2022/04/14 10:01:35;;;;;;;0.60;0.60;;;;;;;;;;4951402;29;20651;-60
2022/04/14 10:04:02;;;;;;;1.20;1.20;;;;;;;;;;4951216;29;20293;-60
2022/04/14 10:06:29;;;;;;;0.90;0.90;;;;;;;;;;4952511;29;20223;-60
2022/04/14 10:08:57;;;;;;;1.70;1.60;;;;;;;;;;4952073;29;20294;-60
2022/04/14 10:11:28;;;;;;;2.33;2.05;;;;;;;;;;4951870;29;20230;-60
2022/04/14 10:14:09;;;;;;;1.73;1.65;;;;;;;;;;4951025;29;20239;-60
2022/04/14 10:16:37;;;;;;;2.03;1.35;;;;;;;;;;4951943;29;20305;-60
2022/04/14 10:19:04;;;;;;;1.52;1.42;;;;;;;;;;4952264;29;20207;-59
2022/04/14 10:21:32;;;;;;;1.83;1.63;;;;;;;;;;4951541;29;20330;-59
2022/04/14 10:23:59;;;;;;;1.55;1.45;;;;;;;;;;4952194;29;20215;-59
2022/04/14 10:26:27;;;;;;;1.92;1.80;;;;;;;;;;4951700;29;20749;-59
2022/04/14 10:28:55;;;;;;;2.35;2.22;;;;;;;;;;4951905;29;20266;-60
2022/04/14 10:31:24;;;;;;;1.00;1.00;;;;;;;;;;4951400;29;20211;-60
2022/04/14 10:33:52;;;;;;;1.70;1.60;;;;;;;;;;4951798;29;20211;-60
2022/04/14 10:36:19;;;;;;;2.25;1.70;;;;;;;;;;4950298;29;20211;-60
2022/04/14 10:38:47;;;;;;;1.90;1.80;;;;;;;;;;4951993;29;20215;-60
2022/04/14 10:41:16;;;;;;;2.15;1.20;;;;;;;;;;4943821;29;20239;-60
2022/04/14 10:43:44;;;;;;;0.90;0.90;;;;;;;;;;4947806;29;20216;-60
2022/04/14 10:46:14;;;;;;;1.15;1.08;;;;;;;;;;4940283;29;20219;-60
2022/04/14 10:48:43;;;;;;;1.67;1.33;;;;;;;;;;4932045;29;20234;-59
2022/04/14 10:51:20;;;;;;;0.98;0.98;;;;;;;;;;4932207;29;20212;-59
2022/04/14 10:53:49;;;;;;;1.20;1.00;;;;;;;;;;4932491;29;20224;-60
2022/04/14 10:56:31;;;;;;;1.10;0.95;;;;;;;;;;4932743;29;20315;-60
2022/04/14 10:58:58;;;;;;;1.45;1.35;;;;;;;;;;4933862;29;20203;-60
2022/04/14 11:01:44;;;;;;;1.13;1.13;;;;;;;;;;4956825;28;20210;-60
2022/04/14 11:04:24;;;;;;;2.45;0.90;;;;;;;;;;4970006;28;20217;-61
2022/04/14 11:06:52;;;;;;;1.10;1.10;;;;;;;;;;4970454;28;20244;-61
2022/04/14 11:09:37;;;;;;;1.30;1.30;;;;;;;;;;4962615;28;20233;-59
2022/04/14 11:12:04;;;;;;;1.23;1.23;;;;;;;;;;4951909;28;20206;-60
2022/04/14 11:14:35;;;;;;;1.75;1.65;;;;;;;;;;4947118;29;20203;-60
2022/04/14 11:17:03;;;;;;;1.60;1.48;;;;;;;;;;4966523;28;20214;-59
2022/04/14 11:19:32;;;;;;;1.50;1.40;;;;;;;;;;4967159;28;20211;-60
2022/04/14 11:22:04;;;;;;;2.00;1.80;;;;;;;;;;4951147;29;20342;-59
2022/04/14 11:24:35;;;;;;;3.38;1.80;;;;;;;;;;4951089;29;20246;-57
2022/04/14 11:27:12;;;;;;;1.60;1.52;;;;;;;;;;4949716;29;20645;-58
2022/04/14 11:29:40;;;;;;;2.88;1.65;;;;;;;;;;4942301;29;20687;-61
2022/04/14 11:32:07;;;;;;;2.05;1.90;;;;;;;;;;4932131;29;20204;-59
2022/04/14 11:34:36;;;;;;;2.63;2.30;;;;;;;;;;4932109;29;20203;-61
2022/04/14 11:37:03;;;;;;;4.20;2.67;;;;;;;;;;4945781;29;20266;-61
2022/04/14 11:39:32;;;;;;;2.10;2.10;;;;;;;;;;4949248;29;20693;-61
2022/04/14 11:42:04;;;;;;;1.92;1.83;;;;;;;;;;4944940;29;20309;-60
2022/04/14 11:44:32;;;;;;;2.80;2.10;;;;;;;;;;4949942;29;20262;-60
2022/04/14 11:47:00;;;;;;;4.20;2.35;;;;;;;;;;4945959;29;20294;-59
2022/04/14 11:49:28;;;;;;;2.88;2.70;;;;;;;;;;4942895;28;20738;-60
2022/04/14 11:51:57;;;;;;;3.83;3.10;;;;;;;;;;4956675;28;20215;-60
2022/04/14 11:54:35;;;;;;;2.15;2.05;;;;;;;;;;4941768;29;20681;-58
2022/04/14 11:57:06;;;;;;;4.28;2.55;;;;;;;;;;4944185;29;20207;-59
2022/04/14 11:59:34;;;;;;;2.80;2.60;;;;;;;;;;4930411;29;20214;-58
2022/04/14 12:02:02;;;;;;;2.90;2.70;;;;;;;;;;4938361;29;20271;-57
2022/04/14 12:04:35;;;;;;;1.90;1.80;;;;;;;;;;4932090;29;20230;-57
2022/04/14 12:07:03;;;;;;;3.20;3.00;;;;;;;;;;4933441;29;20210;-58
2022/04/14 12:09:30;;;;;;;3.22;3.03;;;;;;;;;;4947019;29;20218;-58
2022/04/14 12:11:57;;;;;;;2.97;2.70;;;;;;;;;;4949108;29;20211;-60
2022/04/14 12:14:24;;;;;;;2.63;2.42;;;;;;;;;;4948183;29;20255;-58
2022/04/14 12:16:52;;;;;;;3.08;2.75;;;;;;;;;;4948307;29;20211;-58
2022/04/14 12:19:20;;;;;;;2.38;2.28;;;;;;;;;;4943172;29;20211;-58
2022/04/14 12:22:00;;;;;;;2.70;2.50;;;;;;;;;;4949289;29;20557;-58
2022/04/14 12:24:29;;;;;;;2.88;2.67;;;;;;;;;;4946107;29;20214;-58
2022/04/14 12:26:56;;;;;;;2.67;2.58;;;;;;;;;;4947829;29;20263;-58
2022/04/14 12:29:23;;;;;;;7.32;2.95;;;;;;;;;;4946613;29;20630;-58
2022/04/14 12:31:50;;;;;;;3.65;3.25;;;;;;;;;;4947817;29;20222;-58
2022/04/14 12:34:18;;;;;;;3.58;2.58;;;;;;;;;;4946580;29;20289;-57
2022/04/14 12:36:45;;;;;;;3.03;2.72;;;;;;;;;;4949375;29;20915;-58
2022/04/14 12:39:18;;;;;;;3.55;3.10;;;;;;;;;;4949286;29;20206;-57
2022/04/14 12:41:46;;;;;;;2.88;2.67;;;;;;;;;;4948293;29;20203;-59
2022/04/14 12:44:18;;;;;;;3.20;2.90;;;;;;;;;;4939575;29;20606;-59
2022/04/14 12:46:47;;;;;;;3.72;3.42;;;;;;;;;;4931875;29;20212;-58
2022/04/14 12:49:15;;;;;;;4.28;3.03;;;;;;;;;;4945659;29;20654;-60
2022/04/14 12:51:45;;;;;;;3.10;2.90;;;;;;;;;;4946035;29;20211;-66
2022/04/14 12:54:16;;;;;;;3.15;2.78;;;;;;;;;;4948879;29;20714;-59
2022/04/14 12:56:56;;;;;;;3.92;2.47;;;;;;;;;;4934442;29;20212;-59
2022/04/14 12:59:25;;;;;;;2.72;2.63;;;;;;;;;;4945399;29;20226;-58
2022/04/14 13:01:53;;;;;;;3.65;2.78;;;;;;;;;;4939046;29;20769;-59
2022/04/14 13:04:21;;;;;;;3.40;2.88;;;;;;;;;;4950177;29;20582;-59
2022/04/14 13:06:58;;;;;;;3.10;2.90;;;;;;;;;;4941212;29;20279;-59
2022/04/14 13:09:25;;;;;;;3.28;2.97;;;;;;;;;;4930425;29;20219;-59
2022/04/14 13:11:52;;;;;;;3.50;2.70;;;;;;;;;;4931764;29;20730;-59
2022/04/14 13:14:20;;;;;;;3.25;2.92;;;;;;;;;;4948275;29;20234;-59
2022/04/14 13:16:49;;;;;;;2.90;2.75;;;;;;;;;;4949196;29;20211;-59
2022/04/14 13:19:16;;;;;;;2.72;2.53;;;;;;;;;;4949417;29;20274;-60
2022/04/14 13:21:43;;;;;;;3.55;2.35;;;;;;;;;;4948150;29;20203;-75
2022/04/14 13:24:11;;;;;;;2.72;2.53;;;;;;;;;;4946529;29;20294;-74
2022/04/14 13:26:38;;;;;;;6.28;2.72;;;;;;;;;;4944887;29;20690;-59
2022/04/14 13:29:05;;;;;;;5.97;2.63;;;;;;;;;;4948651;29;20218;-58
2022/04/14 13:31:32;;;;;;;2.53;2.42;;;;;;;;;;4948358;29;20215;-64
2022/04/14 13:34:01;;;;;;;2.63;2.42;;;;;;;;;;4948165;28;20218;-61
2022/04/14 13:36:28;;;;;;;2.75;2.55;;;;;;;;;;4933024;29;20208;-61
2022/04/14 13:38:55;;;;;;;3.42;3.13;;;;;;;;;;4935750;29;20211;-62
2022/04/14 13:41:22;;;;;;;2.40;2.30;;;;;;;;;;4936867;29;20207;-60
2022/04/14 13:43:49;;;;;;;3.83;2.53;;;;;;;;;;4945539;29;20247;-59
2022/04/14 13:46:16;;;;;;;3.33;2.58;;;;;;;;;;4947023;29;20661;-60
2022/04/14 13:48:43;;;;;;;5.40;2.67;;;;;;;;;;4943434;28;20223;-59
2022/04/14 13:51:13;;;;;;;2.80;2.60;;;;;;;;;;4950057;28;20215;-59
2022/04/14 13:53:40;;;;;;;3.80;2.83;;;;;;;;;;4936346;29;20227;-59
2022/04/14 13:56:08;;;;;;;2.63;2.42;;;;;;;;;;4939633;29;20219;-60
2022/04/14 13:58:35;;;;;;;2.50;2.40;;;;;;;;;;4936013;29;20214;-59
2022/04/14 14:01:02;;;;;;;2.83;2.70;;;;;;;;;;4944894;29;20206;-60
2022/04/14 14:03:30;;;;;;;2.78;2.58;;;;;;;;;;4948729;29;20235;-60
2022/04/14 14:05:58;;;;;;;4.72;2.97;;;;;;;;;;4948280;29;20832;-60
2022/04/14 14:08:26;;;;;;;2.53;2.42;;;;;;;;;;4946974;29;20305;-59
2022/04/14 14:10:54;;;;;;;3.63;2.35;;;;;;;;;;4948089;29;20686;-59
2022/04/14 14:13:21;;;;;;;2.58;2.47;;;;;;;;;;4948513;29;20226;-59
2022/04/14 14:15:48;;;;;;;2.35;2.20;;;;;;;;;;4948573;29;20781;-60
2022/04/14 14:18:16;;;;;;;2.65;2.45;;;;;;;;;;4944164;29;20211;-59
2022/04/14 14:20:46;;;;;;;2.55;2.30;;;;;;;;;;4939001;29;20208;-60
2022/04/14 14:23:13;;;;;;;2.78;2.58;;;;;;;;;;4943945;29;20231;-60
2022/04/14 14:25:42;;;;;;;2.42;2.22;;;;;;;;;;4929191;29;20342;-60
2022/04/14 14:28:09;;;;;;;2.70;2.35;;;;;;;;;;4929124;29;20215;-60
2022/04/14 14:30:36;;;;;;;2.53;2.42;;;;;;;;;;4935407;29;20238;-60
2022/04/14 14:33:04;;;;;;;2.35;2.15;;;;;;;;;;4927305;29;20311;-60
2022/04/14 14:35:31;;;;;;;2.67;2.50;;;;;;;;;;4927931;29;20230;-60
2022/04/14 14:37:58;;;;;;;1.73;1.67;;;;;;;;;;4928312;29;20215;-60
2022/04/14 14:40:26;;;;;;;3.70;2.20;;;;;;;;;;4932868;29;20218;-59
2022/04/14 14:42:55;;;;;;;1.90;1.80;;;;;;;;;;4945823;29;20278;-60
2022/04/14 14:45:22;;;;;;;3.65;2.67;;;;;;;;;;4935789;29;20207;-58
2022/04/14 14:47:50;;;;;;;3.38;2.47;;;;;;;;;;4927844;29;20228;-58
2022/04/14 14:50:17;;;;;;;4.68;2.47;;;;;;;;;;4934425;29;20218;-59